Time;durP1;ratioP1;P1;durP2;ratioP2;P2;SDS_P1;SDS_P2;PMS_P1;PMS_P2;Temp;Humidity;BMP_temperature;BMP_pressure;BME280_temperature;BME280_humidity;BME280_pressure;Samples;Min_cycle;Max_cycle;Signal;HPM_P1;HPM_P2
2023/01/13 00:01:06;;;;;;;2.57;1.20;;;18.10;66.70;;;;;;5116195;28;20440;-83
2023/01/13 00:03:35;;;;;;;1.47;1.30;;;18.10;66.60;;;;;;5108292;28;20517;-81
2023/01/13 00:06:03;;;;;;;2.57;1.57;;;18.00;66.70;;;;;;5112767;28;20433;-81
2023/01/13 00:08:32;;;;;;;2.10;1.30;;;18.00;66.60;;;;;;5109008;28;20445;-80
2023/01/13 00:11:00;;;;;;;1.70;1.47;;;18.10;66.70;;;;;;5094752;28;20452;-81
2023/01/13 00:13:28;;;;;;;3.47;1.50;;;18.10;66.70;;;;;;5089320;28;20452;-81
2023/01/13 00:15:56;;;;;;;7.40;1.70;;;18.10;66.70;;;;;;5093375;28;20938;-81
2023/01/13 00:18:24;;;;;;;2.70;1.40;;;18.10;66.60;;;;;;5088588;28;20472;-80
2023/01/13 00:21:01;;;;;;;2.70;1.43;;;18.10;66.60;;;;;;5092215;28;20863;-81
2023/01/13 00:23:29;;;;;;;1.67;1.40;;;18.10;66.50;;;;;;5094021;28;20518;-81
2023/01/13 00:25:57;;;;;;;3.03;1.47;;;18.10;66.60;;;;;;5095281;28;20476;-80
2023/01/13 00:28:25;;;;;;;2.90;1.37;;;18.10;66.50;;;;;;5092130;28;20460;-79
2023/01/13 00:30:55;;;;;;;1.60;1.50;;;18.10;66.40;;;;;;5094782;28;20521;-80
2023/01/13 00:33:23;;;;;;;1.53;1.43;;;18.10;66.50;;;;;;5095689;28;20484;-80
2023/01/13 00:35:56;;;;;;;1.63;1.33;;;18.10;66.40;;;;;;5096019;28;20959;-80
2023/01/13 00:38:25;;;;;;;1.97;1.33;;;18.10;66.40;;;;;;5095579;28;20498;-80
2023/01/13 00:40:57;;;;;;;3.77;1.50;;;18.10;66.50;;;;;;5106566;28;20927;-80
2023/01/13 00:43:24;;;;;;;3.10;1.47;;;18.10;66.40;;;;;;5095770;28;20461;-80
2023/01/13 00:45:52;;;;;;;3.00;1.37;;;18.00;66.30;;;;;;5085275;28;20486;-80
2023/01/13 00:48:20;;;;;;;4.30;1.60;;;18.00;66.30;;;;;;5080811;28;20984;-80
2023/01/13 00:50:54;;;;;;;1.43;1.33;;;18.00;66.40;;;;;;5088465;28;20530;-80
2023/01/13 00:53:22;;;;;;;2.10;1.60;;;18.00;66.30;;;;;;5087839;28;20860;-80
2023/01/13 00:55:58;;;;;;;4.00;1.67;;;18.00;66.30;;;;;;5096608;28;20448;-81
2023/01/13 00:58:26;;;;;;;3.00;1.40;;;18.00;66.20;;;;;;5095430;28;20482;-79
2023/01/13 01:00:54;;;;;;;2.73;1.50;;;18.00;66.20;;;;;;5098313;28;20471;-79
2023/01/13 01:03:22;;;;;;;1.67;1.27;;;18.00;66.20;;;;;;5090652;28;20465;-80
2023/01/13 01:05:50;;;;;;;4.07;1.50;;;18.00;66.20;;;;;;5091449;28;20483;-80
2023/01/13 01:08:18;;;;;;;6.40;1.80;;;18.00;66.20;;;;;;5095076;28;20445;-80
2023/01/13 01:10:46;;;;;;;3.30;1.30;;;18.00;66.20;;;;;;5088823;28;20549;-80
2023/01/13 01:13:16;;;;;;;2.40;1.77;;;17.90;66.00;;;;;;5094970;28;20472;-80
2023/01/13 01:15:44;;;;;;;3.13;1.57;;;17.90;66.20;;;;;;5095322;28;20445;-80
2023/01/13 01:18:12;;;;;;;2.93;1.67;;;17.90;66.30;;;;;;5094303;28;20456;-78
2023/01/13 01:20:40;;;;;;;2.07;1.57;;;17.90;66.30;;;;;;5096994;28;20441;-78
2023/01/13 01:23:08;;;;;;;3.23;1.67;;;17.90;66.20;;;;;;5097617;28;20456;-79
2023/01/13 01:25:36;;;;;;;3.57;1.67;;;17.90;66.20;;;;;;5097032;28;20516;-78
2023/01/13 01:28:04;;;;;;;3.50;1.37;;;17.90;66.20;;;;;;5090055;28;20457;-79
2023/01/13 01:30:34;;;;;;;3.57;1.70;;;17.90;66.40;;;;;;5094032;28;20526;-79
2023/01/13 01:33:04;;;;;;;2.83;1.73;;;17.90;66.30;;;;;;5095311;28;20456;-78
2023/01/13 01:35:32;;;;;;;5.13;1.70;;;17.90;66.10;;;;;;5093476;28;20448;-79
2023/01/13 01:38:00;;;;;;;4.20;2.00;;;17.90;66.20;;;;;;5090818;28;20498;-78
2023/01/13 01:40:28;;;;;;;1.83;1.70;;;17.90;66.20;;;;;;5092286;28;20429;-78
2023/01/13 01:45:43;;;;;;;6.90;2.07;;;17.80;66.00;;;;;;5092081;28;20452;-78
2023/01/13 01:48:12;;;;;;;5.53;1.60;;;17.80;66.00;;;;;;5093886;28;20509;-78
2023/01/13 01:50:39;;;;;;;4.57;1.70;;;17.80;65.90;;;;;;5095994;28;20472;-78
2023/01/13 01:53:10;;;;;;;8.03;1.80;;;17.80;65.90;;;;;;5097211;28;20483;-78
2023/01/13 01:55:38;;;;;;;8.10;2.20;;;17.80;66.10;;;;;;5092500;28;20506;-78
2023/01/13 01:58:08;;;;;;;4.77;1.50;;;17.80;66.10;;;;;;5098160;28;20452;-78
2023/01/13 02:00:36;;;;;;;3.67;2.17;;;17.70;66.00;;;;;;5093206;28;20447;-78
2023/01/13 02:03:06;;;;;;;5.27;1.83;;;17.70;66.00;;;;;;5097468;28;20472;-78
2023/01/13 02:05:34;;;;;;;8.83;2.30;;;17.70;65.90;;;;;;5090659;28;20440;-78
2023/01/13 02:08:02;;;;;;;5.83;2.37;;;17.70;65.90;;;;;;5089998;28;20464;-78
2023/01/13 02:10:31;;;;;;;8.30;3.70;;;17.70;65.80;;;;;;5098187;28;20472;-78
2023/01/13 02:13:00;;;;;;;7.73;3.30;;;17.70;65.80;;;;;;5090769;28;20506;-78
2023/01/13 02:15:32;;;;;;;6.07;3.80;;;17.60;65.70;;;;;;5096107;28;20472;-78
2023/01/13 02:18:18;;;;;;;8.87;3.77;;;17.70;65.90;;;;;;5093550;28;20448;-78
2023/01/13 02:21:05;;;;;;;7.80;3.80;;;17.70;65.70;;;;;;5094079;28;20524;-78
2023/01/13 02:27:44;;;;;;;13.40;3.50;;;17.60;65.70;;;;;;5031847;28;20454;-79
2023/01/13 02:33:13;;;;;;;6.60;3.10;;;17.50;65.80;;;;;;5090199;28;20465;-78
2023/01/13 02:35:47;;;;;;;10.10;3.57;;;17.50;66.00;;;;;;5095950;28;20593;-78
2023/01/13 02:38:15;;;;;;;7.17;3.50;;;17.50;65.90;;;;;;5098157;28;20526;-78
2023/01/13 02:40:46;;;;;;;12.37;3.90;;;17.50;65.80;;;;;;5098302;28;20468;-79
2023/01/13 02:46:07;;;;;;;13.07;3.10;;;17.50;65.80;;;;;;5093685;28;20494;-79
2023/01/13 02:48:35;;;;;;;6.13;3.70;;;17.50;65.90;;;;;;5103531;28;20451;-78
2023/01/13 02:51:05;;;;;;;8.03;3.23;;;17.40;65.70;;;;;;5093562;28;20471;-78
2023/01/13 02:53:33;;;;;;;7.50;2.93;;;17.50;65.90;;;;;;5096479;28;20472;-78
2023/01/13 02:56:02;;;;;;;6.60;3.10;;;17.50;65.90;;;;;;5091965;28;20457;-78
2023/01/13 02:58:31;;;;;;;6.87;2.90;;;17.50;65.80;;;;;;5101882;28;20453;-78
2023/01/13 03:00:59;;;;;;;13.13;3.50;;;17.50;65.80;;;;;;5092914;28;20448;-78
2023/01/13 03:03:28;;;;;;;12.67;3.30;;;17.40;65.80;;;;;;5101548;28;20479;-78
2023/01/13 03:06:02;;;;;;;8.80;3.10;;;17.40;65.60;;;;;;5092797;28;20452;-78
2023/01/13 03:08:38;;;;;;;7.90;3.10;;;17.40;65.60;;;;;;5095492;28;20453;-78
2023/01/13 03:11:07;;;;;;;5.93;2.90;;;17.40;65.50;;;;;;5103751;28;20566;-78
2023/01/13 03:13:56;;;;;;;6.90;3.07;;;17.40;65.60;;;;;;5086830;28;20472;-78
2023/01/13 03:16:29;;;;;;;5.73;2.90;;;17.40;65.50;;;;;;5096546;28;20452;-79
2023/01/13 03:19:06;;;;;;;7.70;3.10;;;17.40;65.60;;;;;;5092733;28;20452;-78
2023/01/13 03:21:38;;;;;;;11.03;3.47;;;17.40;65.40;;;;;;5097225;28;20459;-78
2023/01/13 03:24:09;;;;;;;10.10;3.27;;;17.40;65.50;;;;;;5095070;28;20487;-78
2023/01/13 03:26:39;;;;;;;10.83;3.80;;;17.30;65.40;;;;;;5092675;28;20459;-78
2023/01/13 03:29:10;;;;;;;6.90;3.23;;;17.30;65.10;;;;;;5103113;28;20537;-78
2023/01/13 03:31:42;;;;;;;10.30;3.60;;;17.30;65.30;;;;;;5100627;28;20470;-79
2023/01/13 03:34:13;;;;;;;7.40;2.90;;;17.30;65.50;;;;;;5092630;28;20472;-78
2023/01/13 03:36:41;;;;;;;7.33;2.77;;;17.30;65.60;;;;;;5097945;28;20451;-78
2023/01/13 03:39:11;;;;;;;8.13;3.60;;;17.30;65.40;;;;;;5098097;28;20445;-78
2023/01/13 03:41:42;;;;;;;7.57;3.03;;;17.30;65.20;;;;;;5094122;28;20957;-78
2023/01/13 03:44:23;;;;;;;12.47;3.23;;;17.30;65.00;;;;;;5094301;28;20463;-78
2023/01/13 03:46:58;;;;;;;10.13;2.80;;;17.30;65.20;;;;;;5097422;28;20509;-78
2023/01/13 03:49:29;;;;;;;9.50;3.03;;;17.30;65.20;;;;;;5118116;28;20459;-78
2023/01/13 03:51:58;;;;;;;7.10;3.00;;;17.30;64.90;;;;;;5098653;28;20468;-78
2023/01/13 03:54:27;;;;;;;12.33;3.50;;;17.30;65.10;;;;;;5099717;28;20463;-78
2023/01/13 03:56:56;;;;;;;12.03;3.57;;;17.30;64.80;;;;;;5100261;28;20447;-78
2023/01/13 03:59:26;;;;;;;6.53;2.57;;;17.30;64.90;;;;;;5106684;28;20444;-78
2023/01/13 04:01:59;;;;;;;17.60;3.90;;;17.30;64.80;;;;;;5102756;28;20452;-78
2023/01/13 04:04:30;;;;;;;12.97;3.53;;;17.30;64.70;;;;;;5091100;28;20476;-78
2023/01/13 04:07:01;;;;;;;12.20;3.37;;;17.20;64.90;;;;;;5101997;28;20456;-78
2023/01/13 04:09:32;;;;;;;8.60;3.23;;;17.20;64.80;;;;;;5094738;28;20460;-78
2023/01/13 04:12:01;;;;;;;14.13;4.30;;;17.20;64.70;;;;;;5091245;28;20469;-78
2023/01/13 04:14:29;;;;;;;14.87;3.10;;;17.20;64.70;;;;;;5106909;28;20468;-78
2023/01/13 04:16:57;;;;;;;9.43;3.50;;;17.20;64.70;;;;;;5100146;28;20448;-78
2023/01/13 04:19:26;;;;;;;13.70;3.60;;;17.20;64.60;;;;;;5104394;28;20445;-78
2023/01/13 04:21:55;;;;;;;11.47;3.60;;;17.20;64.80;;;;;;5105557;28;20455;-78
2023/01/13 04:24:23;;;;;;;11.03;3.70;;;17.20;64.60;;;;;;5094741;28;20468;-78
2023/01/13 04:26:51;;;;;;;13.70;3.63;;;17.10;64.50;;;;;;5106519;28;20496;-78
2023/01/13 04:29:19;;;;;;;12.40;3.83;;;17.10;64.40;;;;;;5106693;28;20448;-78
2023/01/13 04:31:47;;;;;;;11.83;3.37;;;17.10;65.20;;;;;;5101590;28;20479;-78
2023/01/13 04:34:15;;;;;;;14.50;3.80;;;17.10;64.30;;;;;;5108318;28;20563;-78
2023/01/13 04:36:43;;;;;;;14.53;4.10;;;17.10;64.30;;;;;;5101820;28;20463;-78
2023/01/13 04:39:12;;;;;;;6.73;3.30;;;17.10;64.20;;;;;;5105425;28;20461;-78
2023/01/13 04:42:00;;;;;;;9.40;3.80;;;17.10;64.20;;;;;;5106759;28;21036;-78
2023/01/13 04:44:28;;;;;;;11.47;3.73;;;17.10;64.30;;;;;;5101399;28;20460;-78
2023/01/13 04:46:55;;;;;;;20.00;4.07;;;17.10;64.20;;;;;;5102852;28;20448;-78
2023/01/13 04:49:24;;;;;;;15.77;3.60;;;17.10;64.20;;;;;;5103753;28;20441;-78
2023/01/13 04:51:51;;;;;;;13.00;3.93;;;17.10;64.00;;;;;;5096731;28;20465;-79
2023/01/13 04:54:21;;;;;;;11.00;3.30;;;17.00;64.10;;;;;;5095736;28;20460;-78
2023/01/13 04:56:49;;;;;;;12.60;3.33;;;17.10;64.10;;;;;;5094333;28;20482;-78
2023/01/13 04:59:16;;;;;;;13.20;4.00;;;17.10;64.00;;;;;;5093606;28;20453;-78
2023/01/13 05:01:45;;;;;;;12.43;3.83;;;17.00;64.00;;;;;;5097249;28;20441;-78
2023/01/13 05:04:14;;;;;;;15.97;3.73;;;17.00;63.70;;;;;;5098607;28;20469;-78
2023/01/13 05:06:42;;;;;;;12.97;3.40;;;17.00;64.00;;;;;;5095392;28;20453;-78
2023/01/13 05:09:12;;;;;;;14.50;3.70;;;17.00;64.00;;;;;;5096523;28;20479;-79
2023/01/13 05:17:14;;;;;;;12.67;3.67;;;17.00;64.00;;;;;;5097190;28;20942;-81
2023/01/13 05:19:42;;;;;;;13.60;3.47;;;17.00;64.00;;;;;;5090428;28;20478;-79
2023/01/13 05:27:43;;;;;;;16.30;4.03;;;17.00;63.70;;;;;;5098575;28;20455;-79
2023/01/13 05:30:11;;;;;;;12.10;3.60;;;17.00;63.80;;;;;;5090757;28;20480;-80
2023/01/13 05:32:40;;;;;;;20.43;4.03;;;17.00;63.90;;;;;;5095845;28;20468;-80
2023/01/13 05:35:08;;;;;;;16.23;4.07;;;17.00;63.70;;;;;;5098155;28;20881;-81
2023/01/13 05:37:36;;;;;;;15.03;3.50;;;17.00;63.60;;;;;;5099737;28;20440;-81
2023/01/13 05:43:21;;;;;;;17.40;4.00;;;17.00;63.40;;;;;;5088000;28;20452;-80
2023/01/13 05:45:49;;;;;;;14.53;3.80;;;17.00;63.50;;;;;;5091962;28;20449;-80
2023/01/13 05:48:18;;;;;;;13.77;3.70;;;17.00;63.50;;;;;;5101573;28;20459;-80
2023/01/13 05:50:46;;;;;;;16.37;3.80;;;17.00;63.40;;;;;;5088463;28;20448;-80
2023/01/13 05:53:14;;;;;;;12.17;3.10;;;17.00;63.30;;;;;;5099852;28;20476;-81
2023/01/13 05:55:42;;;;;;;15.43;3.77;;;17.00;63.40;;;;;;5094484;28;20455;-81
2023/01/13 05:58:12;;;;;;;15.37;4.23;;;17.00;63.30;;;;;;5094343;28;20452;-80
2023/01/13 06:00:41;;;;;;;15.40;3.80;;;17.00;63.30;;;;;;5097838;28;20452;-80
2023/01/13 06:03:08;;;;;;;20.70;4.13;;;17.00;63.30;;;;;;5098998;28;20479;-80
2023/01/13 06:05:37;;;;;;;14.90;3.37;;;17.00;63.30;;;;;;5102724;28;20453;-81
2023/01/13 06:08:06;;;;;;;18.93;3.90;;;17.00;63.40;;;;;;5101495;28;20448;-80
2023/01/13 06:10:35;;;;;;;16.70;3.90;;;17.00;63.30;;;;;;5097759;28;20457;-80
2023/01/13 06:13:02;;;;;;;10.67;3.50;;;17.00;63.10;;;;;;5101597;28;20475;-81
2023/01/13 06:15:32;;;;;;;14.37;3.60;;;17.00;63.10;;;;;;5093964;28;20451;-80
2023/01/13 06:18:02;;;;;;;11.20;3.33;;;17.00;63.20;;;;;;5094637;28;20452;-80
2023/01/13 06:20:31;;;;;;;18.67;4.53;;;16.90;63.20;;;;;;5082254;28;20452;-81
2023/01/13 06:22:59;;;;;;;18.37;3.77;;;16.90;63.20;;;;;;5098526;28;20439;-81
2023/01/13 06:25:32;;;;;;;16.10;3.97;;;16.90;63.20;;;;;;5098878;28;20461;-81
2023/01/13 06:27:59;;;;;;;18.70;3.67;;;16.90;63.00;;;;;;5099739;28;20447;-81
2023/01/13 06:30:29;;;;;;;17.13;3.80;;;16.90;63.70;;;;;;5099590;28;20475;-81
2023/01/13 06:32:59;;;;;;;11.57;3.60;;;16.90;63.10;;;;;;5100715;28;20464;-80
2023/01/13 06:35:28;;;;;;;13.20;3.70;;;16.90;63.10;;;;;;5100916;28;20456;-80
2023/01/13 06:37:56;;;;;;;18.50;4.10;;;16.90;63.10;;;;;;5096682;28;20448;-80
2023/01/13 06:40:24;;;;;;;17.00;4.00;;;16.90;62.90;;;;;;5097004;28;20484;-80
2023/01/13 06:45:39;;;;;;;11.70;3.70;;;16.90;63.00;;;;;;5102760;28;20459;-79
2023/01/13 06:48:08;;;;;;;12.60;2.93;;;16.90;63.00;;;;;;5105094;28;20447;-80
2023/01/13 06:50:37;;;;;;;13.47;3.97;;;16.90;63.00;;;;;;5096424;28;20448;-80
2023/01/13 06:53:04;;;;;;;15.43;4.03;;;16.90;63.00;;;;;;5095159;28;20477;-80
2023/01/13 06:55:32;;;;;;;16.20;4.50;;;16.90;63.50;;;;;;5096273;28;20449;-81
2023/01/13 06:58:00;;;;;;;12.83;3.67;;;16.80;62.80;;;;;;5097632;28;20467;-80
2023/01/13 07:00:28;;;;;;;13.93;2.97;;;16.90;62.90;;;;;;5095580;28;20455;-80
2023/01/13 07:03:09;;;;;;;10.87;3.53;;;16.80;62.80;;;;;;5100552;28;20942;-80
2023/01/13 07:05:37;;;;;;;10.63;3.23;;;16.90;62.80;;;;;;5104661;28;20532;-80
2023/01/13 07:08:06;;;;;;;15.87;3.40;;;16.90;62.90;;;;;;5107382;28;20452;-83
2023/01/13 07:10:33;;;;;;;13.27;3.50;;;16.90;62.80;;;;;;5099598;28;20449;-80
2023/01/13 07:15:54;;;;;;;12.50;3.37;;;16.90;62.60;;;;;;5102214;28;20449;-80
2023/01/13 07:18:26;;;;;;;12.60;3.40;;;16.90;62.40;;;;;;5096412;28;20428;-80
2023/01/13 07:20:54;;;;;;;16.67;3.73;;;16.80;62.40;;;;;;5097921;28;20520;-80
2023/01/13 07:23:23;;;;;;;13.53;3.67;;;16.80;62.30;;;;;;5103848;28;20485;-80
2023/01/13 07:25:51;;;;;;;21.70;4.90;;;16.90;62.30;;;;;;5092290;28;20475;-80
2023/01/13 07:28:19;;;;;;;17.33;4.07;;;16.80;62.10;;;;;;5102769;28;20482;-80
2023/01/13 07:30:47;;;;;;;15.13;3.70;;;16.80;62.10;;;;;;5108109;28;20452;-80
2023/01/13 07:33:17;;;;;;;10.40;3.40;;;16.80;62.00;;;;;;5103945;28;20479;-80
2023/01/13 07:35:46;;;;;;;12.03;3.20;;;16.80;62.00;;;;;;5109474;28;20479;-81
2023/01/13 07:38:15;;;;;;;11.43;3.30;;;16.80;62.00;;;;;;5106436;28;20470;-81
2023/01/13 07:40:43;;;;;;;15.43;4.10;;;16.80;61.90;;;;;;5105595;28;20455;-81
2023/01/13 07:46:06;;;;;;;14.40;3.50;;;16.80;61.60;;;;;;5050997;28;20452;-81
2023/01/13 07:48:35;;;;;;;11.20;3.17;;;16.80;61.70;;;;;;5104939;28;20519;-80
2023/01/13 07:51:04;;;;;;;15.30;3.20;;;16.80;61.80;;;;;;5098065;28;20444;-80
2023/01/13 07:53:33;;;;;;;11.03;3.60;;;16.80;61.70;;;;;;5099833;28;20480;-80
2023/01/13 07:56:01;;;;;;;13.60;3.40;;;16.80;61.70;;;;;;5102079;28;20451;-81
2023/01/13 07:58:29;;;;;;;14.83;3.77;;;16.80;61.80;;;;;;5097933;28;20471;-80
2023/01/13 08:00:57;;;;;;;11.00;2.90;;;16.80;61.80;;;;;;5096636;28;20456;-80
2023/01/13 08:03:25;;;;;;;15.33;4.10;;;16.90;61.70;;;;;;5094956;28;20461;-80
2023/01/13 08:05:54;;;;;;;15.90;3.00;;;16.90;61.60;;;;;;5095545;28;20447;-80
2023/01/13 08:08:23;;;;;;;12.80;2.80;;;16.80;61.50;;;;;;5096469;28;20453;-81
2023/01/13 08:10:51;;;;;;;10.77;2.90;;;16.80;61.40;;;;;;5100590;28;20459;-81
2023/01/13 08:13:19;;;;;;;9.80;3.10;;;16.80;61.50;;;;;;5097411;28;20475;-80
2023/01/13 08:15:48;;;;;;;9.87;3.20;;;16.90;61.40;;;;;;5100209;28;20448;-80
2023/01/13 08:18:19;;;;;;;14.33;2.83;;;16.80;61.20;;;;;;5100452;28;20456;-81
2023/01/13 08:20:48;;;;;;;13.00;3.13;;;16.90;61.30;;;;;;5105179;28;20543;-80
2023/01/13 08:23:16;;;;;;;13.13;3.13;;;16.90;61.30;;;;;;5098805;28;20475;-79
2023/01/13 08:25:45;;;;;;;11.60;3.13;;;16.90;61.20;;;;;;5104175;28;20476;-79
2023/01/13 08:28:13;;;;;;;7.53;2.67;;;16.90;61.10;;;;;;5099122;28;20811;-80
2023/01/13 08:30:41;;;;;;;10.53;2.80;;;16.90;60.80;;;;;;5102086;28;20453;-79
2023/01/13 08:33:10;;;;;;;14.30;3.23;;;16.90;60.90;;;;;;5095440;28;20476;-79
2023/01/13 08:35:38;;;;;;;10.13;2.90;;;16.90;60.90;;;;;;5094972;28;20453;-79
2023/01/13 08:38:06;;;;;;;9.63;3.20;;;17.00;60.90;;;;;;5103223;28;20452;-77
2023/01/13 08:40:34;;;;;;;9.67;3.23;;;17.00;60.90;;;;;;5101169;28;20457;-77
2023/01/13 08:43:04;;;;;;;12.23;2.77;;;17.00;60.80;;;;;;5101936;28;20451;-77
2023/01/13 08:45:32;;;;;;;10.93;2.50;;;17.00;60.70;;;;;;5091906;28;20947;-77
2023/01/13 08:47:59;;;;;;;13.33;3.30;;;17.10;60.90;;;;;;5096243;28;20454;-78
2023/01/13 08:50:27;;;;;;;9.87;2.80;;;17.00;60.70;;;;;;5093098;28;20436;-78
2023/01/13 08:52:55;;;;;;;10.13;2.80;;;17.10;60.70;;;;;;5096821;28;20444;-78
2023/01/13 08:55:23;;;;;;;10.47;3.07;;;17.00;60.40;;;;;;5099696;28;20499;-77
2023/01/13 08:57:51;;;;;;;14.63;3.20;;;17.00;60.60;;;;;;5096498;28;20447;-77
2023/01/13 09:00:24;;;;;;;8.13;2.37;;;17.00;60.70;;;;;;5096215;28;20464;-77
2023/01/13 09:02:53;;;;;;;9.83;2.70;;;17.10;60.50;;;;;;5093416;28;20459;-77
2023/01/13 09:05:21;;;;;;;7.37;2.30;;;17.10;60.50;;;;;;5087393;28;20456;-78
2023/01/13 09:07:49;;;;;;;10.77;2.80;;;17.10;60.40;;;;;;5091265;28;20456;-78
2023/01/13 09:10:17;;;;;;;11.47;2.60;;;17.10;60.40;;;;;;5099102;28;20452;-78
2023/01/13 09:15:31;;;;;;;5.20;2.37;;;17.10;60.30;;;;;;5083255;28;20483;-78
2023/01/13 09:18:00;;;;;;;6.33;2.27;;;17.20;60.60;;;;;;5096049;28;20449;-78
2023/01/13 09:20:28;;;;;;;8.50;2.50;;;17.20;60.40;;;;;;5091191;28;20453;-78
2023/01/13 09:22:56;;;;;;;11.33;2.63;;;17.20;60.30;;;;;;5093374;28;20456;-78
2023/01/13 09:25:24;;;;;;;9.67;2.83;;;17.20;60.30;;;;;;5095193;28;20446;-78
2023/01/13 09:27:52;;;;;;;7.93;2.53;;;17.20;60.30;;;;;;5095920;28;20460;-78
2023/01/13 09:30:20;;;;;;;8.90;2.70;;;17.20;60.20;;;;;;5097521;28;20455;-78
2023/01/13 09:34:58;;;;;;;12.40;2.80;;;17.20;60.20;;;;;;5093183;28;20452;-78
2023/01/13 09:35:37;;;;;;;9.93;3.00;;;17.20;60.20;;;;;;5092348;28;20476;-78
2023/01/13 09:38:06;;;;;;;10.37;3.10;;;17.20;60.40;;;;;;5096696;28;20461;-78
2023/01/13 09:40:34;;;;;;;10.90;2.77;;;17.20;60.30;;;;;;5089822;28;20954;-78
2023/01/13 09:45:53;;;;;;;12.20;2.97;;;17.20;60.40;;;;;;5097439;28;20453;-78
2023/01/13 09:48:24;;;;;;;4.97;2.10;;;17.20;60.50;;;;;;5093847;28;20540;-77
2023/01/13 09:50:58;;;;;;;12.97;3.00;;;17.30;60.50;;;;;;5090457;28;20453;-78
2023/01/13 09:53:28;;;;;;;7.97;2.40;;;17.30;60.30;;;;;;5098480;28;20542;-78
2023/01/13 09:55:56;;;;;;;7.17;2.30;;;17.30;60.30;;;;;;5095071;28;20479;-78
2023/01/13 09:58:24;;;;;;;8.97;2.20;;;17.30;60.20;;;;;;5089436;28;20460;-79
2023/01/13 10:01:00;;;;;;;6.80;2.80;;;17.30;60.30;;;;;;5087083;28;20509;-77
2023/01/13 10:03:30;;;;;;;4.33;2.20;;;17.40;60.60;;;;;;5096804;28;20492;-78
2023/01/13 10:06:03;;;;;;;7.50;2.50;;;17.40;60.40;;;;;;5095649;28;20460;-76
2023/01/13 10:08:33;;;;;;;10.30;2.40;;;17.40;60.30;;;;;;5083073;28;20452;-77
2023/01/13 10:13:12;;;;;;;6.10;2.10;;;17.40;60.30;;;;;;5090078;28;20440;-77
2023/01/13 10:13:54;;;;;;;9.70;2.30;;;17.50;60.40;;;;;;5082413;28;20499;-77
2023/01/13 10:16:26;;;;;;;10.77;2.20;;;17.50;60.30;;;;;;5094355;28;20460;-76
2023/01/13 10:19:06;;;;;;;5.33;2.20;;;17.60;60.20;;;;;;5093715;28;20445;-76
2023/01/13 10:21:54;;;;;;;6.00;2.47;;;17.70;60.00;;;;;;5085636;28;20445;-78
2023/01/13 10:24:25;;;;;;;9.07;2.70;;;17.70;59.90;;;;;;5092721;28;20487;-76
2023/01/13 10:26:56;;;;;;;3.60;2.10;;;17.70;59.90;;;;;;5093107;28;20437;-77
2023/01/13 10:29:25;;;;;;;10.23;2.43;;;17.60;59.90;;;;;;5088836;28;20480;-76
2023/01/13 10:31:53;;;;;;;5.10;2.30;;;17.70;59.90;;;;;;5087926;28;20557;-77
2023/01/13 10:34:23;;;;;;;5.93;2.20;;;17.70;59.80;;;;;;5093825;28;20472;-77
2023/01/13 10:37:01;;;;;;;6.70;2.93;;;17.70;59.90;;;;;;5092972;28;20449;-76
2023/01/13 10:39:41;;;;;;;5.43;2.20;;;17.80;60.00;;;;;;5085016;28;20476;-77
2023/01/13 10:42:13;;;;;;;6.27;2.17;;;17.80;59.80;;;;;;5093239;28;20471;-77
2023/01/13 10:44:49;;;;;;;8.80;2.40;;;17.80;59.80;;;;;;5092100;28;20460;-77
2023/01/13 10:47:20;;;;;;;6.50;2.00;;;17.80;59.70;;;;;;5080558;28;20534;-77
2023/01/13 10:50:01;;;;;;;7.73;2.60;;;17.80;59.80;;;;;;5084573;28;20437;-77
2023/01/13 10:52:30;;;;;;;5.87;2.50;;;17.70;59.70;;;;;;5084993;28;20527;-77
2023/01/13 10:54:59;;;;;;;5.23;2.70;;;17.70;59.80;;;;;;5094765;28;20503;-79
2023/01/13 10:57:28;;;;;;;8.40;2.83;;;17.70;59.60;;;;;;5093534;28;20460;-78
2023/01/13 10:59:56;;;;;;;8.20;2.57;;;17.70;59.70;;;;;;5096788;28;20460;-79
2023/01/13 11:02:28;;;;;;;5.27;2.50;;;17.60;59.90;;;;;;5100117;28;20468;-81
2023/01/13 11:05:03;;;;;;;10.57;2.50;;;17.70;59.90;;;;;;5097240;28;20475;-79
2023/01/13 11:07:32;;;;;;;6.33;2.57;;;17.70;59.90;;;;;;5101986;28;20474;-80
2023/01/13 11:10:18;;;;;;;7.97;3.07;;;17.60;59.90;;;;;;5101497;28;20456;-79
2023/01/13 11:12:51;;;;;;;6.23;2.40;;;17.70;59.90;;;;;;5095076;28;20476;-79
2023/01/13 11:15:21;;;;;;;7.53;3.00;;;17.60;59.90;;;;;;5100177;28;20476;-80
2023/01/13 11:17:59;;;;;;;9.07;2.60;;;17.60;59.90;;;;;;5099669;28;20508;-80
2023/01/13 11:20:32;;;;;;;7.40;2.93;;;17.60;60.00;;;;;;5097868;28;20516;-79
2023/01/13 11:23:02;;;;;;;9.50;2.20;;;17.60;60.00;;;;;;5096967;28;20559;-79
2023/01/13 11:25:34;;;;;;;7.83;2.53;;;17.60;59.90;;;;;;5104019;28;20440;-79
2023/01/13 11:28:04;;;;;;;10.40;2.60;;;17.60;60.10;;;;;;5094649;28;20464;-80
2023/01/13 11:30:34;;;;;;;7.57;2.30;;;17.60;60.10;;;;;;5100372;28;20492;-79
2023/01/13 11:33:16;;;;;;;6.83;2.33;;;17.60;60.00;;;;;;5099948;28;20471;-79
2023/01/13 11:35:48;;;;;;;9.03;2.87;;;17.60;60.00;;;;;;5096857;28;20488;-79
2023/01/13 11:38:20;;;;;;;7.37;2.40;;;17.50;60.10;;;;;;5089566;28;20529;-77
2023/01/13 11:40:49;;;;;;;6.77;2.37;;;17.50;60.00;;;;;;5096676;28;20454;-77
2023/01/13 11:43:19;;;;;;;6.67;2.57;;;17.50;60.20;;;;;;5092955;28;20589;-78
2023/01/13 11:45:49;;;;;;;9.80;2.90;;;17.50;60.20;;;;;;5094478;28;20502;-79
2023/01/13 11:48:19;;;;;;;8.77;2.60;;;17.40;60.90;;;;;;5093381;28;20557;-78
2023/01/13 11:50:52;;;;;;;7.80;2.67;;;17.40;60.30;;;;;;5093220;28;20460;-78
2023/01/13 11:53:28;;;;;;;11.70;2.77;;;17.40;60.30;;;;;;5099557;28;20469;-78
2023/01/13 11:56:00;;;;;;;6.23;2.23;;;17.40;60.40;;;;;;5097452;28;20445;-78
2023/01/13 11:58:52;;;;;;;5.30;2.23;;;17.40;60.60;;;;;;5094101;28;20457;-78
2023/01/13 12:01:26;;;;;;;15.43;3.13;;;17.50;60.40;;;;;;5093405;28;20460;-78
2023/01/13 12:04:00;;;;;;;9.70;2.70;;;17.50;60.50;;;;;;5095412;28;20541;-79
2023/01/13 12:06:33;;;;;;;11.23;2.80;;;17.50;60.50;;;;;;5097926;28;20437;-78
2023/01/13 12:09:22;;;;;;;7.33;3.00;;;17.50;60.40;;;;;;5090796;28;20464;-79
2023/01/13 12:14:51;;;;;;;4.27;2.10;;;17.50;60.40;;;;;;5102075;28;20547;-79
2023/01/13 12:17:22;;;;;;;8.40;2.70;;;17.40;60.40;;;;;;5107608;28;20458;-79
2023/01/13 12:19:51;;;;;;;8.80;2.90;;;17.50;60.50;;;;;;5102993;28;20543;-78
2023/01/13 12:22:21;;;;;;;7.37;2.70;;;17.50;60.50;;;;;;5107803;28;20464;-80
2023/01/13 12:24:51;;;;;;;10.57;2.80;;;17.50;61.10;;;;;;5101980;28;20483;-79
2023/01/13 12:27:22;;;;;;;7.60;3.33;;;17.50;60.50;;;;;;5109435;28;20459;-79
2023/01/13 12:29:51;;;;;;;4.47;2.63;;;17.50;60.60;;;;;;5112509;28;20550;-79
2023/01/13 12:32:22;;;;;;;5.80;3.07;;;17.50;60.70;;;;;;5105221;28;20454;-79
2023/01/13 12:34:59;;;;;;;8.53;3.27;;;17.60;60.70;;;;;;5098805;28;20475;-80
2023/01/13 12:37:32;;;;;;;5.77;2.83;;;17.60;60.50;;;;;;5107538;28;20464;-79
2023/01/13 12:40:15;;;;;;;15.43;2.77;;;17.50;60.30;;;;;;5102888;28;20523;-81
2023/01/13 12:45:33;;;;;;;8.37;3.73;;;17.50;60.50;;;;;;5104604;28;20444;-79
2023/01/13 12:48:01;;;;;;;5.47;2.40;;;17.50;60.50;;;;;;5099115;28;20455;-79
2023/01/13 12:50:51;;;;;;;8.33;3.20;;;17.50;60.50;;;;;;5097584;28;20465;-78
2023/01/13 12:53:37;;;;;;;9.10;3.30;;;17.50;60.40;;;;;;5095810;28;20571;-79
2023/01/13 12:56:36;;;;;;;10.17;3.47;;;17.50;60.50;;;;;;5094559;28;20496;-78
2023/01/13 12:59:33;;;;;;;7.60;2.97;;;17.50;60.60;;;;;;5092001;28;20464;-78
2023/01/13 13:02:30;;;;;;;7.80;2.90;;;17.50;60.70;;;;;;5093395;28;20444;-79
2023/01/13 13:05:01;;;;;;;7.67;2.67;;;17.50;60.60;;;;;;5090037;28;20468;-78
2023/01/13 13:07:37;;;;;;;6.50;3.07;;;17.50;60.90;;;;;;5095953;28;20433;-79
2023/01/13 13:10:16;;;;;;;5.47;2.83;;;17.50;60.60;;;;;;5093774;28;20436;-80
2023/01/13 13:15:41;;;;;;;6.70;2.50;;;17.50;60.70;;;;;;5098243;28;20575;-80
2023/01/13 13:18:28;;;;;;;8.57;3.20;;;17.50;60.90;;;;;;5091861;28;20449;-80
2023/01/13 13:20:58;;;;;;;5.97;2.83;;;17.50;60.60;;;;;;5102159;28;20460;-80
2023/01/13 13:23:57;;;;;;;6.00;2.67;;;17.50;60.90;;;;;;5098491;28;20484;-78
2023/01/13 13:26:34;;;;;;;7.53;2.90;;;17.70;60.70;;;;;;5098197;28;20453;-79
2023/01/13 13:29:28;;;;;;;8.20;3.00;;;17.70;60.80;;;;;;5100528;28;20463;-79
2023/01/13 13:32:11;;;;;;;10.47;2.87;;;17.80;60.90;;;;;;5087771;28;20457;-77
2023/01/13 13:34:45;;;;;;;8.53;2.90;;;18.00;60.70;;;;;;5097615;28;20464;-80
2023/01/13 13:49:08;;;;;;;6.63;3.30;;;18.10;59.80;;;;;;5094645;28;20449;-80
2023/01/13 13:51:39;;;;;;;6.93;2.67;;;18.00;60.10;;;;;;5099473;28;20457;-83
2023/01/13 13:54:09;;;;;;;6.43;2.50;;;18.00;60.00;;;;;;5102784;28;20471;-81
2023/01/13 13:56:40;;;;;;;7.90;3.00;;;18.00;59.90;;;;;;5100022;28;20594;-81
2023/01/13 13:59:10;;;;;;;6.47;2.57;;;17.90;59.90;;;;;;5094949;28;20455;-81
2023/01/13 14:01:39;;;;;;;9.70;2.87;;;17.80;59.80;;;;;;5089320;28;20441;-81
2023/01/13 14:04:14;;;;;;;6.73;2.70;;;17.80;60.10;;;;;;5097658;28;20482;-81